createdAt,value
2022-12-11T00:08:35.874Z,0
2022-12-11T00:18:12.422Z,0
2022-12-11T00:27:49.052Z,0
2022-12-11T00:37:25.514Z,0
2022-12-11T00:47:02.283Z,0
2022-12-11T00:56:39.056Z,0
2022-12-11T01:06:15.682Z,0
2022-12-11T01:15:52.077Z,0
2022-12-11T01:25:28.542Z,0
2022-12-11T01:35:05.398Z,0
2022-12-11T01:44:41.663Z,0
2022-12-11T01:54:18.166Z,0
2022-12-11T02:03:54.736Z,0
2022-12-11T02:13:31.463Z,0
2022-12-11T02:23:08.122Z,0
2022-12-11T02:32:44.634Z,0
2022-12-11T02:42:21.075Z,0
2022-12-11T02:51:57.771Z,0
2022-12-11T03:01:34.370Z,0
2022-12-11T03:11:10.712Z,0
2022-12-11T03:20:47.579Z,0
2022-12-11T03:30:26.033Z,0
2022-12-11T03:40:01.108Z,0
2022-12-11T03:49:37.623Z,0
2022-12-11T03:59:14.034Z,0
2022-12-11T04:08:50.762Z,0
2022-12-11T04:18:27.503Z,0
2022-12-11T04:28:09.706Z,0
2022-12-11T04:37:40.212Z,0
2022-12-11T04:47:18.518Z,0
2022-12-11T04:56:53.340Z,0
2022-12-11T05:06:29.607Z,0
2022-12-11T05:16:08.084Z,0
2022-12-11T05:25:43.553Z,0
2022-12-11T05:35:19.982Z,0
2022-12-11T05:44:56.218Z,0
2022-12-11T05:54:32.813Z,0
2022-12-11T06:04:09.415Z,0
2022-12-11T06:13:45.438Z,0
2022-12-11T06:23:21.889Z,0
2022-12-11T06:32:58.333Z,0
2022-12-11T06:42:34.958Z,0
2022-12-11T06:52:15.069Z,0
2022-12-11T07:01:48.247Z,5.63
2022-12-11T07:11:24.326Z,5.63
2022-12-11T07:21:00.687Z,11.25
2022-12-11T07:30:37.176Z,16.88
2022-12-11T07:40:13.828Z,28.13
2022-12-11T07:49:50.466Z,28.13
2022-12-11T07:59:27.200Z,39.38
2022-12-11T08:09:03.934Z,45
2022-12-11T08:18:40.807Z,73.13
2022-12-11T08:28:17.855Z,67.5
2022-12-11T08:37:54.775Z,67.5
2022-12-11T08:47:31.245Z,67.5
2022-12-11T08:57:07.863Z,90
2022-12-11T09:06:44.568Z,101.25
2022-12-11T09:16:21.443Z,118.13
2022-12-11T09:25:57.755Z,112.5
2022-12-11T09:35:35.064Z,140.63
2022-12-11T09:45:11.877Z,185.63
2022-12-11T09:54:48.988Z,185.63
2022-12-11T10:04:26.393Z,219.38
2022-12-11T10:14:03.990Z,202.5
2022-12-11T10:23:40.662Z,146.25
2022-12-11T10:33:18.992Z,191.25
2022-12-11T10:42:54.418Z,180
2022-12-11T10:52:30.659Z,174.38
2022-12-11T11:02:07.036Z,146.25
2022-12-11T11:11:45.334Z,118.13
2022-12-11T11:21:20.216Z,112.5
2022-12-11T11:30:56.817Z,106.88
2022-12-11T11:40:33.186Z,101.25
2022-12-11T11:50:09.663Z,106.88
2022-12-11T11:59:45.815Z,84.38
2022-12-11T12:09:23.736Z,61.88
2022-12-11T12:18:58.059Z,45
2022-12-11T12:28:34.184Z,45
2022-12-11T12:38:10.239Z,39.38
2022-12-11T12:47:51.845Z,45
2022-12-11T12:57:23.058Z,45
2022-12-11T13:06:36.822Z,50.63
2022-12-11T13:16:13.484Z,56.25
2022-12-11T13:25:49.621Z,56.25
2022-12-11T13:35:26.277Z,50.63
2022-12-11T13:45:02.354Z,45
2022-12-11T13:54:38.966Z,56.25
2022-12-11T14:04:15.105Z,67.5
2022-12-11T14:13:52.460Z,84.38
2022-12-11T14:23:28.973Z,67.5
2022-12-11T14:33:05.109Z,39.38
2022-12-11T14:42:40.934Z,16.88
2022-12-11T14:52:16.281Z,5.63
2022-12-11T15:01:52.564Z,0
2022-12-11T15:11:28.935Z,0
2022-12-11T15:21:05.318Z,0
2022-12-11T15:30:41.721Z,0
2022-12-11T15:40:18.227Z,0
2022-12-11T15:49:54.802Z,0
2022-12-11T15:59:30.742Z,0
2022-12-11T16:09:07.391Z,0
2022-12-11T16:18:43.718Z,0
2022-12-11T16:28:20.422Z,0
2022-12-11T16:37:56.372Z,0
2022-12-11T16:47:32.842Z,0
2022-12-11T16:57:09.065Z,0
2022-12-11T17:06:45.283Z,0
2022-12-11T17:16:21.679Z,0
2022-12-11T17:25:57.896Z,0
2022-12-11T17:35:34.253Z,0
2022-12-11T17:45:10.857Z,0
2022-12-11T17:54:47.759Z,0
2022-12-11T18:04:22.963Z,0
2022-12-11T18:13:58.911Z,0
2022-12-11T18:23:34.733Z,0
2022-12-11T18:33:16.313Z,0
2022-12-11T18:42:46.460Z,0
2022-12-11T18:52:24.869Z,0
2022-12-11T19:02:00.106Z,0
2022-12-11T19:11:37.796Z,0
2022-12-11T19:21:14.955Z,0
2022-12-11T19:30:50.905Z,0
2022-12-11T19:40:27.195Z,0
2022-12-11T19:50:03.053Z,0
2022-12-11T19:59:39.736Z,0
2022-12-11T20:09:16.470Z,0
2022-12-11T20:18:52.772Z,0
2022-12-11T20:28:29.472Z,0
2022-12-11T20:38:05.917Z,0
2022-12-11T20:47:41.963Z,0
2022-12-11T20:57:18.289Z,0
2022-12-11T21:06:56.966Z,0
2022-12-11T21:16:32.296Z,0
2022-12-11T21:26:09.576Z,0
2022-12-11T21:35:46.343Z,0
2022-12-11T21:46:00.186Z,0
2022-12-11T21:54:59.432Z,0
2022-12-11T22:04:35.607Z,0
2022-12-11T22:14:11.986Z,0
2022-12-11T22:23:47.864Z,0
2022-12-11T22:33:24.350Z,0
2022-12-11T22:43:00.984Z,0
2022-12-11T22:52:37.379Z,0
2022-12-11T23:02:14.220Z,0
2022-12-11T23:11:51.122Z,0
2022-12-11T23:21:32.916Z,0
2022-12-11T23:31:04.547Z,0
2022-12-11T23:40:40.984Z,0
2022-12-11T23:50:17.731Z,0
2022-12-11T23:59:54.406Z,0
